sensor_id;sensor_type;location;lat;lon;timestamp;P1;durP1;ratioP1;P2;durP2;ratioP2
9496;SDS011;4786;51.270;4.456;2022-08-02T00:00:56;1.83;;;1.60;;
9496;SDS011;4786;51.270;4.456;2022-08-02T00:03:22;2.67;;;1.80;;
9496;SDS011;4786;51.270;4.456;2022-08-02T00:05:47;2.33;;;1.70;;
9496;SDS011;4786;51.270;4.456;2022-08-02T00:08:14;3.00;;;1.57;;
9496;SDS011;4786;51.270;4.456;2022-08-02T00:10:40;5.70;;;1.80;;
9496;SDS011;4786;51.270;4.456;2022-08-02T00:13:06;2.17;;;1.67;;
9496;SDS011;4786;51.270;4.456;2022-08-02T00:15:32;1.60;;;1.50;;
9496;SDS011;4786;51.270;4.456;2022-08-02T00:17:58;4.20;;;1.70;;
9496;SDS011;4786;51.270;4.456;2022-08-02T00:20:23;1.53;;;1.40;;
9496;SDS011;4786;51.270;4.456;2022-08-02T00:22:49;4.33;;;1.70;;
9496;SDS011;4786;51.270;4.456;2022-08-02T00:25:15;2.47;;;1.77;;
9496;SDS011;4786;51.270;4.456;2022-08-02T00:27:41;3.20;;;1.90;;
9496;SDS011;4786;51.270;4.456;2022-08-02T00:30:07;3.43;;;1.90;;
9496;SDS011;4786;51.270;4.456;2022-08-02T00:32:33;2.37;;;1.70;;
9496;SDS011;4786;51.270;4.456;2022-08-02T00:34:59;3.87;;;1.83;;
9496;SDS011;4786;51.270;4.456;2022-08-02T00:37:25;1.77;;;1.67;;
9496;SDS011;4786;51.270;4.456;2022-08-02T00:39:51;4.27;;;2.03;;
9496;SDS011;4786;51.270;4.456;2022-08-02T00:42:17;2.77;;;1.70;;
9496;SDS011;4786;51.270;4.456;2022-08-02T00:44:43;2.57;;;1.90;;
9496;SDS011;4786;51.270;4.456;2022-08-02T00:47:09;1.60;;;1.50;;
9496;SDS011;4786;51.270;4.456;2022-08-02T00:49:35;2.97;;;1.60;;
9496;SDS011;4786;51.270;4.456;2022-08-02T00:52:02;4.77;;;2.00;;
9496;SDS011;4786;51.270;4.456;2022-08-02T00:54:27;2.50;;;1.87;;
9496;SDS011;4786;51.270;4.456;2022-08-02T00:56:54;3.43;;;1.80;;
9496;SDS011;4786;51.270;4.456;2022-08-02T00:59:19;2.87;;;2.00;;
9496;SDS011;4786;51.270;4.456;2022-08-02T01:01:45;3.20;;;2.30;;
9496;SDS011;4786;51.270;4.456;2022-08-02T01:04:12;5.23;;;2.27;;
9496;SDS011;4786;51.270;4.456;2022-08-02T01:06:39;2.47;;;1.90;;
9496;SDS011;4786;51.270;4.456;2022-08-02T01:09:07;2.83;;;2.00;;
9496;SDS011;4786;51.270;4.456;2022-08-02T01:11:33;3.73;;;2.07;;
9496;SDS011;4786;51.270;4.456;2022-08-02T01:14:10;2.20;;;2.00;;
9496;SDS011;4786;51.270;4.456;2022-08-02T01:16:40;3.23;;;1.90;;
9496;SDS011;4786;51.270;4.456;2022-08-02T01:27:36;3.47;;;2.10;;
9496;SDS011;4786;51.270;4.456;2022-08-02T01:30:09;2.33;;;2.03;;
9496;SDS011;4786;51.270;4.456;2022-08-02T01:32:44;3.00;;;2.10;;
9496;SDS011;4786;51.270;4.456;2022-08-02T01:35:33;2.90;;;2.13;;
9496;SDS011;4786;51.270;4.456;2022-08-02T01:38:06;2.80;;;1.87;;
9496;SDS011;4786;51.270;4.456;2022-08-02T01:40:39;2.83;;;1.93;;
9496;SDS011;4786;51.270;4.456;2022-08-02T01:43:08;3.70;;;2.20;;
9496;SDS011;4786;51.270;4.456;2022-08-02T01:45:36;2.17;;;1.90;;
9496;SDS011;4786;51.270;4.456;2022-08-02T01:48:05;2.30;;;2.07;;
9496;SDS011;4786;51.270;4.456;2022-08-02T01:50:33;3.10;;;1.90;;
9496;SDS011;4786;51.270;4.456;2022-08-02T01:53:02;6.30;;;2.00;;
9496;SDS011;4786;51.270;4.456;2022-08-02T01:55:33;3.03;;;1.90;;
9496;SDS011;4786;51.270;4.456;2022-08-02T01:58:03;5.73;;;2.50;;
9496;SDS011;4786;51.270;4.456;2022-08-02T02:00:31;2.90;;;2.13;;
9496;SDS011;4786;51.270;4.456;2022-08-02T02:03:04;3.30;;;2.00;;
9496;SDS011;4786;51.270;4.456;2022-08-02T02:05:33;5.90;;;2.40;;
9496;SDS011;4786;51.270;4.456;2022-08-02T02:08:00;2.93;;;1.90;;
9496;SDS011;4786;51.270;4.456;2022-08-02T02:10:29;2.93;;;1.90;;
9496;SDS011;4786;51.270;4.456;2022-08-02T02:13:04;3.00;;;1.93;;
9496;SDS011;4786;51.270;4.456;2022-08-02T02:15:33;4.10;;;2.20;;
9496;SDS011;4786;51.270;4.456;2022-08-02T02:18:00;2.37;;;2.17;;
9496;SDS011;4786;51.270;4.456;2022-08-02T02:20:28;4.20;;;2.23;;
9496;SDS011;4786;51.270;4.456;2022-08-02T02:22:54;3.60;;;2.07;;
9496;SDS011;4786;51.270;4.456;2022-08-02T02:25:21;4.90;;;2.00;;
9496;SDS011;4786;51.270;4.456;2022-08-02T02:28:02;2.50;;;2.17;;
9496;SDS011;4786;51.270;4.456;2022-08-02T02:30:31;4.87;;;2.70;;
9496;SDS011;4786;51.270;4.456;2022-08-02T02:32:59;2.70;;;2.17;;
9496;SDS011;4786;51.270;4.456;2022-08-02T02:35:26;2.97;;;2.20;;
9496;SDS011;4786;51.270;4.456;2022-08-02T02:37:58;2.57;;;2.10;;
9496;SDS011;4786;51.270;4.456;2022-08-02T02:40:26;2.80;;;2.10;;
9496;SDS011;4786;51.270;4.456;2022-08-02T02:42:53;3.77;;;2.27;;
9496;SDS011;4786;51.270;4.456;2022-08-02T02:45:20;3.57;;;1.93;;
9496;SDS011;4786;51.270;4.456;2022-08-02T02:47:46;3.40;;;2.30;;
9496;SDS011;4786;51.270;4.456;2022-08-02T02:50:14;2.93;;;1.80;;
9496;SDS011;4786;51.270;4.456;2022-08-02T02:52:41;3.23;;;2.30;;
9496;SDS011;4786;51.270;4.456;2022-08-02T02:55:08;3.13;;;2.20;;
9496;SDS011;4786;51.270;4.456;2022-08-02T02:57:35;3.87;;;2.20;;
9496;SDS011;4786;51.270;4.456;2022-08-02T03:00:03;5.70;;;2.57;;
9496;SDS011;4786;51.270;4.456;2022-08-02T03:02:31;3.37;;;2.13;;
9496;SDS011;4786;51.270;4.456;2022-08-02T03:04:58;4.37;;;2.43;;
9496;SDS011;4786;51.270;4.456;2022-08-02T03:07:27;3.53;;;2.50;;
9496;SDS011;4786;51.270;4.456;2022-08-02T03:09:52;5.40;;;3.00;;
9496;SDS011;4786;51.270;4.456;2022-08-02T03:12:19;5.33;;;2.67;;
9496;SDS011;4786;51.270;4.456;2022-08-02T03:14:45;5.73;;;2.87;;
9496;SDS011;4786;51.270;4.456;2022-08-02T03:17:11;3.33;;;2.10;;
9496;SDS011;4786;51.270;4.456;2022-08-02T03:19:37;3.50;;;2.40;;
9496;SDS011;4786;51.270;4.456;2022-08-02T03:22:03;5.20;;;2.70;;
9496;SDS011;4786;51.270;4.456;2022-08-02T03:24:29;3.50;;;2.67;;
9496;SDS011;4786;51.270;4.456;2022-08-02T03:26:55;5.40;;;2.87;;
9496;SDS011;4786;51.270;4.456;2022-08-02T03:29:21;5.20;;;2.40;;
9496;SDS011;4786;51.270;4.456;2022-08-02T03:31:47;2.47;;;2.27;;
9496;SDS011;4786;51.270;4.456;2022-08-02T03:34:12;3.93;;;2.33;;
9496;SDS011;4786;51.270;4.456;2022-08-02T03:36:38;3.90;;;2.53;;
9496;SDS011;4786;51.270;4.456;2022-08-02T03:39:06;3.00;;;2.00;;
9496;SDS011;4786;51.270;4.456;2022-08-02T03:41:32;4.30;;;2.87;;
9496;SDS011;4786;51.270;4.456;2022-08-02T03:44:00;2.97;;;2.20;;
9496;SDS011;4786;51.270;4.456;2022-08-02T03:46:28;2.77;;;2.17;;
9496;SDS011;4786;51.270;4.456;2022-08-02T03:48:56;5.50;;;2.63;;
9496;SDS011;4786;51.270;4.456;2022-08-02T03:51:22;5.07;;;2.50;;
9496;SDS011;4786;51.270;4.456;2022-08-02T03:53:49;5.60;;;2.90;;
9496;SDS011;4786;51.270;4.456;2022-08-02T03:56:15;6.40;;;2.77;;
9496;SDS011;4786;51.270;4.456;2022-08-02T03:58:41;4.07;;;2.60;;
9496;SDS011;4786;51.270;4.456;2022-08-02T04:01:06;4.03;;;2.70;;
9496;SDS011;4786;51.270;4.456;2022-08-02T04:03:32;3.17;;;2.57;;
9496;SDS011;4786;51.270;4.456;2022-08-02T04:05:59;5.53;;;2.60;;
9496;SDS011;4786;51.270;4.456;2022-08-02T04:08:25;5.17;;;2.80;;
9496;SDS011;4786;51.270;4.456;2022-08-02T04:10:50;4.17;;;2.70;;
9496;SDS011;4786;51.270;4.456;2022-08-02T04:13:36;4.30;;;2.83;;
9496;SDS011;4786;51.270;4.456;2022-08-02T04:16:03;4.20;;;2.63;;
9496;SDS011;4786;51.270;4.456;2022-08-02T04:18:38;3.17;;;2.33;;
9496;SDS011;4786;51.270;4.456;2022-08-02T04:21:11;5.10;;;2.87;;
9496;SDS011;4786;51.270;4.456;2022-08-02T04:23:41;4.07;;;2.93;;
9496;SDS011;4786;51.270;4.456;2022-08-02T04:26:09;3.03;;;2.73;;
9496;SDS011;4786;51.270;4.456;2022-08-02T04:28:36;6.57;;;3.27;;
9496;SDS011;4786;51.270;4.456;2022-08-02T04:31:02;5.63;;;3.10;;
9496;SDS011;4786;51.270;4.456;2022-08-02T04:33:30;6.27;;;2.90;;
9496;SDS011;4786;51.270;4.456;2022-08-02T04:35:56;4.43;;;2.83;;
9496;SDS011;4786;51.270;4.456;2022-08-02T04:38:23;4.37;;;2.87;;
9496;SDS011;4786;51.270;4.456;2022-08-02T04:40:53;4.13;;;2.90;;
9496;SDS011;4786;51.270;4.456;2022-08-02T04:43:20;5.43;;;3.20;;
9496;SDS011;4786;51.270;4.456;2022-08-02T04:45:48;3.00;;;2.60;;
9496;SDS011;4786;51.270;4.456;2022-08-02T04:48:16;5.10;;;2.93;;
9496;SDS011;4786;51.270;4.456;2022-08-02T04:50:41;4.67;;;2.80;;
9496;SDS011;4786;51.270;4.456;2022-08-02T04:53:08;7.00;;;2.80;;
9496;SDS011;4786;51.270;4.456;2022-08-02T04:55:33;3.37;;;2.63;;
9496;SDS011;4786;51.270;4.456;2022-08-02T04:57:59;8.07;;;2.60;;
9496;SDS011;4786;51.270;4.456;2022-08-02T05:00:26;2.70;;;2.50;;
9496;SDS011;4786;51.270;4.456;2022-08-02T05:02:53;5.57;;;3.07;;
9496;SDS011;4786;51.270;4.456;2022-08-02T05:05:23;6.13;;;2.97;;
9496;SDS011;4786;51.270;4.456;2022-08-02T05:07:49;3.93;;;2.97;;
9496;SDS011;4786;51.270;4.456;2022-08-02T05:10:15;5.43;;;3.00;;
9496;SDS011;4786;51.270;4.456;2022-08-02T05:12:41;5.57;;;2.77;;
9496;SDS011;4786;51.270;4.456;2022-08-02T05:15:07;4.73;;;2.70;;
9496;SDS011;4786;51.270;4.456;2022-08-02T05:17:35;5.23;;;3.10;;
9496;SDS011;4786;51.270;4.456;2022-08-02T05:20:01;6.27;;;3.53;;
9496;SDS011;4786;51.270;4.456;2022-08-02T05:22:28;4.10;;;3.67;;
9496;SDS011;4786;51.270;4.456;2022-08-02T05:24:54;7.40;;;4.00;;
9496;SDS011;4786;51.270;4.456;2022-08-02T05:27:20;5.80;;;4.17;;
9496;SDS011;4786;51.270;4.456;2022-08-02T05:29:45;5.00;;;4.47;;
9496;SDS011;4786;51.270;4.456;2022-08-02T05:32:11;9.50;;;5.93;;
9496;SDS011;4786;51.270;4.456;2022-08-02T05:34:37;9.87;;;6.47;;
9496;SDS011;4786;51.270;4.456;2022-08-02T05:37:03;8.33;;;5.73;;
9496;SDS011;4786;51.270;4.456;2022-08-02T05:39:29;9.83;;;6.50;;
9496;SDS011;4786;51.270;4.456;2022-08-02T05:41:55;8.57;;;6.35;;
9496;SDS011;4786;51.270;4.456;2022-08-02T05:44:21;9.52;;;5.82;;
9496;SDS011;4786;51.270;4.456;2022-08-02T05:46:47;8.98;;;6.90;;
9496;SDS011;4786;51.270;4.456;2022-08-02T05:49:13;10.93;;;6.90;;
9496;SDS011;4786;51.270;4.456;2022-08-02T05:51:42;9.55;;;7.15;;
9496;SDS011;4786;51.270;4.456;2022-08-02T05:55:04;8.55;;;7.75;;
9496;SDS011;4786;51.270;4.456;2022-08-02T06:00:41;7.82;;;5.72;;
9496;SDS011;4786;51.270;4.456;2022-08-02T06:03:14;6.50;;;5.90;;
9496;SDS011;4786;51.270;4.456;2022-08-02T06:05:50;7.65;;;5.78;;
9496;SDS011;4786;51.270;4.456;2022-08-02T06:08:24;9.93;;;6.95;;
9496;SDS011;4786;51.270;4.456;2022-08-02T06:11:05;8.85;;;6.97;;
9496;SDS011;4786;51.270;4.456;2022-08-02T06:13:37;7.03;;;5.57;;
9496;SDS011;4786;51.270;4.456;2022-08-02T06:16:06;7.53;;;5.45;;
9496;SDS011;4786;51.270;4.456;2022-08-02T06:18:32;7.90;;;7.20;;
9496;SDS011;4786;51.270;4.456;2022-08-02T06:21:03;9.18;;;6.20;;
9496;SDS011;4786;51.270;4.456;2022-08-02T06:23:30;7.45;;;6.10;;
9496;SDS011;4786;51.270;4.456;2022-08-02T06:25:57;7.93;;;6.47;;
9496;SDS011;4786;51.270;4.456;2022-08-02T06:28:23;6.70;;;5.65;;
9496;SDS011;4786;51.270;4.456;2022-08-02T06:30:50;7.90;;;5.80;;
9496;SDS011;4786;51.270;4.456;2022-08-02T06:33:17;8.15;;;5.50;;
9496;SDS011;4786;51.270;4.456;2022-08-02T06:38:39;6.22;;;5.63;;
9496;SDS011;4786;51.270;4.456;2022-08-02T06:41:08;7.53;;;6.15;;
9496;SDS011;4786;51.270;4.456;2022-08-02T06:46:27;7.20;;;4.90;;
9496;SDS011;4786;51.270;4.456;2022-08-02T06:48:53;4.65;;;4.25;;
9496;SDS011;4786;51.270;4.456;2022-08-02T06:51:19;6.18;;;4.53;;
9496;SDS011;4786;51.270;4.456;2022-08-02T06:53:45;7.88;;;5.40;;
9496;SDS011;4786;51.270;4.456;2022-08-02T06:56:11;6.75;;;4.57;;
9496;SDS011;4786;51.270;4.456;2022-08-02T06:58:37;5.13;;;4.00;;
9496;SDS011;4786;51.270;4.456;2022-08-02T07:01:03;6.10;;;5.05;;
9496;SDS011;4786;51.270;4.456;2022-08-02T07:03:34;7.13;;;4.70;;
9496;SDS011;4786;51.270;4.456;2022-08-02T07:06:01;5.57;;;4.97;;
9496;SDS011;4786;51.270;4.456;2022-08-02T07:08:28;4.57;;;4.18;;
9496;SDS011;4786;51.270;4.456;2022-08-02T07:11:07;7.07;;;4.40;;
9496;SDS011;4786;51.270;4.456;2022-08-02T07:13:33;7.80;;;4.35;;
9496;SDS011;4786;51.270;4.456;2022-08-02T07:16:00;4.05;;;3.65;;
9496;SDS011;4786;51.270;4.456;2022-08-02T07:18:27;6.97;;;3.72;;
9496;SDS011;4786;51.270;4.456;2022-08-02T07:20:53;3.80;;;3.40;;
9496;SDS011;4786;51.270;4.456;2022-08-02T07:23:19;4.35;;;3.20;;
9496;SDS011;4786;51.270;4.456;2022-08-02T07:25:46;3.78;;;2.80;;
9496;SDS011;4786;51.270;4.456;2022-08-02T07:28:12;4.15;;;3.22;;
9496;SDS011;4786;51.270;4.456;2022-08-02T07:30:42;5.63;;;2.88;;
9496;SDS011;4786;51.270;4.456;2022-08-02T07:33:08;5.88;;;2.70;;
9496;SDS011;4786;51.270;4.456;2022-08-02T07:35:35;4.03;;;3.25;;
9496;SDS011;4786;51.270;4.456;2022-08-02T07:38:00;5.28;;;2.70;;
9496;SDS011;4786;51.270;4.456;2022-08-02T07:40:27;3.10;;;2.50;;
9496;SDS011;4786;51.270;4.456;2022-08-02T07:42:54;4.25;;;2.60;;
9496;SDS011;4786;51.270;4.456;2022-08-02T07:45:21;2.60;;;2.00;;
9496;SDS011;4786;51.270;4.456;2022-08-02T07:47:48;4.38;;;2.50;;
9496;SDS011;4786;51.270;4.456;2022-08-02T07:50:14;3.85;;;2.10;;
9496;SDS011;4786;51.270;4.456;2022-08-02T07:52:41;4.28;;;2.75;;
9496;SDS011;4786;51.270;4.456;2022-08-02T07:55:08;3.28;;;2.28;;
9496;SDS011;4786;51.270;4.456;2022-08-02T07:57:36;5.00;;;2.60;;
9496;SDS011;4786;51.270;4.456;2022-08-02T08:00:03;7.38;;;2.70;;
9496;SDS011;4786;51.270;4.456;2022-08-02T08:02:31;3.72;;;2.50;;
9496;SDS011;4786;51.270;4.456;2022-08-02T08:04:57;5.25;;;2.65;;
9496;SDS011;4786;51.270;4.456;2022-08-02T08:07:23;3.95;;;2.35;;
9496;SDS011;4786;51.270;4.456;2022-08-02T08:09:49;5.53;;;2.20;;
9496;SDS011;4786;51.270;4.456;2022-08-02T08:12:15;4.57;;;2.40;;
9496;SDS011;4786;51.270;4.456;2022-08-02T08:14:41;6.85;;;2.53;;
9496;SDS011;4786;51.270;4.456;2022-08-02T08:17:08;4.60;;;2.42;;
9496;SDS011;4786;51.270;4.456;2022-08-02T08:19:34;3.63;;;2.35;;
9496;SDS011;4786;51.270;4.456;2022-08-02T08:22:00;4.28;;;2.30;;
9496;SDS011;4786;51.270;4.456;2022-08-02T08:24:29;1.92;;;1.73;;
9496;SDS011;4786;51.270;4.456;2022-08-02T08:26:55;2.85;;;1.77;;
9496;SDS011;4786;51.270;4.456;2022-08-02T08:29:21;4.72;;;2.08;;
9496;SDS011;4786;51.270;4.456;2022-08-02T08:31:48;6.25;;;2.03;;
9496;SDS011;4786;51.270;4.456;2022-08-02T08:34:14;3.28;;;1.98;;
9496;SDS011;4786;51.270;4.456;2022-08-02T08:36:40;2.20;;;1.90;;
9496;SDS011;4786;51.270;4.456;2022-08-02T08:39:06;2.00;;;1.80;;
9496;SDS011;4786;51.270;4.456;2022-08-02T08:41:33;3.60;;;2.00;;
9496;SDS011;4786;51.270;4.456;2022-08-02T08:44:00;2.92;;;2.20;;
9496;SDS011;4786;51.270;4.456;2022-08-02T08:46:30;2.85;;;1.88;;
9496;SDS011;4786;51.270;4.456;2022-08-02T08:49:22;2.38;;;1.98;;
9496;SDS011;4786;51.270;4.456;2022-08-02T08:51:50;2.20;;;1.90;;
9496;SDS011;4786;51.270;4.456;2022-08-02T08:54:19;4.65;;;1.58;;
9496;SDS011;4786;51.270;4.456;2022-08-02T08:56:49;3.10;;;2.00;;
9496;SDS011;4786;51.270;4.456;2022-08-02T08:59:17;2.30;;;1.98;;
9496;SDS011;4786;51.270;4.456;2022-08-02T09:01:46;2.65;;;2.03;;
9496;SDS011;4786;51.270;4.456;2022-08-02T09:04:12;5.22;;;1.90;;
9496;SDS011;4786;51.270;4.456;2022-08-02T09:06:39;2.45;;;1.98;;
9496;SDS011;4786;51.270;4.456;2022-08-02T09:09:05;4.18;;;2.03;;
9496;SDS011;4786;51.270;4.456;2022-08-02T09:11:30;3.35;;;1.80;;
9496;SDS011;4786;51.270;4.456;2022-08-02T09:13:57;2.53;;;1.70;;
9496;SDS011;4786;51.270;4.456;2022-08-02T09:18:54;5.28;;;2.08;;
9496;SDS011;4786;51.270;4.456;2022-08-02T09:21:20;4.20;;;1.60;;
9496;SDS011;4786;51.270;4.456;2022-08-02T09:23:47;2.13;;;1.85;;
9496;SDS011;4786;51.270;4.456;2022-08-02T09:26:16;3.50;;;1.90;;
9496;SDS011;4786;51.270;4.456;2022-08-02T09:28:45;6.43;;;2.00;;
9496;SDS011;4786;51.270;4.456;2022-08-02T09:31:15;3.97;;;1.58;;
9496;SDS011;4786;51.270;4.456;2022-08-02T09:33:49;1.83;;;1.48;;
9496;SDS011;4786;51.270;4.456;2022-08-02T09:36:18;4.10;;;1.58;;
9496;SDS011;4786;51.270;4.456;2022-08-02T09:39:18;5.10;;;1.55;;
9496;SDS011;4786;51.270;4.456;2022-08-02T09:41:39;2.53;;;1.58;;
9496;SDS011;4786;51.270;4.456;2022-08-02T09:44:08;2.40;;;1.45;;
9496;SDS011;4786;51.270;4.456;2022-08-02T09:51:38;2.58;;;1.58;;
9496;SDS011;4786;51.270;4.456;2022-08-02T09:54:18;1.90;;;1.77;;
9496;SDS011;4786;51.270;4.456;2022-08-02T09:56:56;2.67;;;1.58;;
9496;SDS011;4786;51.270;4.456;2022-08-02T09:59:24;5.20;;;2.00;;
9496;SDS011;4786;51.270;4.456;2022-08-02T10:01:52;2.97;;;1.65;;
9496;SDS011;4786;51.270;4.456;2022-08-02T10:04:20;3.25;;;1.52;;
9496;SDS011;4786;51.270;4.456;2022-08-02T10:06:48;3.67;;;2.03;;
9496;SDS011;4786;51.270;4.456;2022-08-02T10:09:16;4.38;;;1.63;;
9496;SDS011;4786;51.270;4.456;2022-08-02T10:11:43;5.68;;;1.80;;
9496;SDS011;4786;51.270;4.456;2022-08-02T10:14:10;2.70;;;1.58;;
9496;SDS011;4786;51.270;4.456;2022-08-02T10:16:37;2.92;;;1.70;;
9496;SDS011;4786;51.270;4.456;2022-08-02T10:19:07;3.42;;;1.60;;
9496;SDS011;4786;51.270;4.456;2022-08-02T10:24:12;1.75;;;1.60;;
9496;SDS011;4786;51.270;4.456;2022-08-02T10:26:43;4.80;;;2.10;;
9496;SDS011;4786;51.270;4.456;2022-08-02T10:29:14;2.30;;;1.45;;
9496;SDS011;4786;51.270;4.456;2022-08-02T10:31:58;2.63;;;1.35;;
9496;SDS011;4786;51.270;4.456;2022-08-02T10:34:30;2.30;;;1.60;;
9496;SDS011;4786;51.270;4.456;2022-08-02T10:37:30;3.85;;;1.80;;
9496;SDS011;4786;51.270;4.456;2022-08-02T10:39:58;2.17;;;1.60;;
9496;SDS011;4786;51.270;4.456;2022-08-02T10:45:08;2.10;;;1.38;;
9496;SDS011;4786;51.270;4.456;2022-08-02T10:47:35;3.22;;;1.63;;
9496;SDS011;4786;51.270;4.456;2022-08-02T10:50:01;1.83;;;1.60;;
9496;SDS011;4786;51.270;4.456;2022-08-02T10:52:28;3.08;;;1.60;;
9496;SDS011;4786;51.270;4.456;2022-08-02T10:54:59;2.08;;;1.38;;
9496;SDS011;4786;51.270;4.456;2022-08-02T10:59:54;2.25;;;1.58;;
9496;SDS011;4786;51.270;4.456;2022-08-02T11:02:52;3.13;;;1.60;;
9496;SDS011;4786;51.270;4.456;2022-08-02T11:08:21;5.78;;;1.50;;
9496;SDS011;4786;51.270;4.456;2022-08-02T11:10:48;1.77;;;1.67;;
9496;SDS011;4786;51.270;4.456;2022-08-02T11:13:15;3.40;;;1.73;;
9496;SDS011;4786;51.270;4.456;2022-08-02T11:15:50;3.92;;;1.50;;
9496;SDS011;4786;51.270;4.456;2022-08-02T11:18:22;4.45;;;1.83;;
9496;SDS011;4786;51.270;4.456;2022-08-02T11:21:25;3.95;;;1.80;;
9496;SDS011;4786;51.270;4.456;2022-08-02T11:23:52;2.65;;;1.77;;
9496;SDS011;4786;51.270;4.456;2022-08-02T11:28:56;3.72;;;1.70;;
9496;SDS011;4786;51.270;4.456;2022-08-02T11:31:28;3.35;;;1.80;;
9496;SDS011;4786;51.270;4.456;2022-08-02T11:34:02;3.92;;;1.63;;
9496;SDS011;4786;51.270;4.456;2022-08-02T11:36:29;2.45;;;1.65;;
9496;SDS011;4786;51.270;4.456;2022-08-02T11:39:08;3.78;;;1.70;;
9496;SDS011;4786;51.270;4.456;2022-08-02T11:41:36;3.30;;;1.90;;
9496;SDS011;4786;51.270;4.456;2022-08-02T11:44:01;5.05;;;1.90;;
9496;SDS011;4786;51.270;4.456;2022-08-02T11:46:28;6.78;;;1.52;;
9496;SDS011;4786;51.270;4.456;2022-08-02T11:48:54;11.80;;;2.72;;
9496;SDS011;4786;51.270;4.456;2022-08-02T11:51:20;3.28;;;1.83;;
9496;SDS011;4786;51.270;4.456;2022-08-02T11:53:54;5.38;;;1.88;;
9496;SDS011;4786;51.270;4.456;2022-08-02T11:56:25;23.08;;;2.58;;
9496;SDS011;4786;51.270;4.456;2022-08-02T11:59:00;4.22;;;1.70;;
9496;SDS011;4786;51.270;4.456;2022-08-02T12:01:30;1.63;;;1.52;;
9496;SDS011;4786;51.270;4.456;2022-08-02T12:03:57;4.82;;;1.80;;
9496;SDS011;4786;51.270;4.456;2022-08-02T12:06:25;12.63;;;2.63;;
9496;SDS011;4786;51.270;4.456;2022-08-02T12:09:11;1.60;;;1.50;;
9496;SDS011;4786;51.270;4.456;2022-08-02T12:11:38;3.70;;;1.60;;
9496;SDS011;4786;51.270;4.456;2022-08-02T12:14:04;25.90;;;2.78;;
9496;SDS011;4786;51.270;4.456;2022-08-02T12:16:34;5.93;;;1.40;;
9496;SDS011;4786;51.270;4.456;2022-08-02T12:19:20;9.50;;;1.80;;
9496;SDS011;4786;51.270;4.456;2022-08-02T12:22:10;13.70;;;2.05;;
9496;SDS011;4786;51.270;4.456;2022-08-02T12:24:33;3.58;;;1.45;;
9496;SDS011;4786;51.270;4.456;2022-08-02T12:27:00;1.20;;;1.10;;
9496;SDS011;4786;51.270;4.456;2022-08-02T12:29:36;2.17;;;1.20;;
9496;SDS011;4786;51.270;4.456;2022-08-02T12:32:04;2.00;;;1.23;;
9496;SDS011;4786;51.270;4.456;2022-08-02T12:34:31;2.22;;;1.50;;
9496;SDS011;4786;51.270;4.456;2022-08-02T12:39:39;3.00;;;1.40;;
9496;SDS011;4786;51.270;4.456;2022-08-02T12:42:11;1.35;;;1.00;;
9496;SDS011;4786;51.270;4.456;2022-08-02T12:44:48;3.97;;;1.60;;
9496;SDS011;4786;51.270;4.456;2022-08-02T12:47:46;2.65;;;1.38;;
9496;SDS011;4786;51.270;4.456;2022-08-02T12:50:15;1.77;;;1.40;;
9496;SDS011;4786;51.270;4.456;2022-08-02T12:52:48;4.32;;;1.48;;
9496;SDS011;4786;51.270;4.456;2022-08-02T12:55:24;3.63;;;1.55;;
9496;SDS011;4786;51.270;4.456;2022-08-02T12:57:55;2.10;;;1.60;;
9496;SDS011;4786;51.270;4.456;2022-08-02T13:00:34;2.45;;;1.50;;
9496;SDS011;4786;51.270;4.456;2022-08-02T13:03:02;2.85;;;1.38;;
9496;SDS011;4786;51.270;4.456;2022-08-02T13:05:29;6.15;;;1.58;;
9496;SDS011;4786;51.270;4.456;2022-08-02T13:07:56;2.92;;;1.42;;
9496;SDS011;4786;51.270;4.456;2022-08-02T13:10:23;3.30;;;1.45;;
9496;SDS011;4786;51.270;4.456;2022-08-02T13:12:50;4.95;;;1.50;;
9496;SDS011;4786;51.270;4.456;2022-08-02T13:15:16;4.18;;;1.35;;
9496;SDS011;4786;51.270;4.456;2022-08-02T13:17:43;3.20;;;1.65;;
9496;SDS011;4786;51.270;4.456;2022-08-02T13:20:10;3.33;;;1.50;;
9496;SDS011;4786;51.270;4.456;2022-08-02T13:22:36;7.13;;;1.48;;
9496;SDS011;4786;51.270;4.456;2022-08-02T13:25:03;2.42;;;1.50;;
9496;SDS011;4786;51.270;4.456;2022-08-02T13:27:29;2.95;;;1.40;;
9496;SDS011;4786;51.270;4.456;2022-08-02T13:29:56;6.47;;;1.70;;
9496;SDS011;4786;51.270;4.456;2022-08-02T13:32:23;2.80;;;1.60;;
9496;SDS011;4786;51.270;4.456;2022-08-02T13:34:50;6.00;;;1.55;;
9496;SDS011;4786;51.270;4.456;2022-08-02T13:37:17;3.85;;;1.55;;
9496;SDS011;4786;51.270;4.456;2022-08-02T13:39:43;6.30;;;1.60;;
9496;SDS011;4786;51.270;4.456;2022-08-02T13:42:09;3.95;;;1.75;;
9496;SDS011;4786;51.270;4.456;2022-08-02T13:44:35;4.82;;;1.70;;
9496;SDS011;4786;51.270;4.456;2022-08-02T13:47:01;3.38;;;1.70;;
9496;SDS011;4786;51.270;4.456;2022-08-02T13:49:27;2.05;;;1.25;;
9496;SDS011;4786;51.270;4.456;2022-08-02T13:51:54;1.95;;;1.55;;
9496;SDS011;4786;51.270;4.456;2022-08-02T13:54:20;2.28;;;1.48;;
9496;SDS011;4786;51.270;4.456;2022-08-02T13:56:45;2.78;;;1.60;;
9496;SDS011;4786;51.270;4.456;2022-08-02T13:59:11;4.32;;;1.95;;
9496;SDS011;4786;51.270;4.456;2022-08-02T14:01:37;4.70;;;1.80;;
9496;SDS011;4786;51.270;4.456;2022-08-02T14:04:03;5.30;;;1.80;;
9496;SDS011;4786;51.270;4.456;2022-08-02T14:06:29;3.58;;;1.67;;
9496;SDS011;4786;51.270;4.456;2022-08-02T14:08:55;2.90;;;1.77;;
9496;SDS011;4786;51.270;4.456;2022-08-02T14:11:21;3.35;;;1.75;;
9496;SDS011;4786;51.270;4.456;2022-08-02T14:13:47;3.25;;;1.65;;
9496;SDS011;4786;51.270;4.456;2022-08-02T14:16:12;3.13;;;1.70;;
9496;SDS011;4786;51.270;4.456;2022-08-02T14:18:38;3.55;;;1.80;;
9496;SDS011;4786;51.270;4.456;2022-08-02T14:21:04;4.70;;;1.73;;
9496;SDS011;4786;51.270;4.456;2022-08-02T14:23:30;6.35;;;1.85;;
9496;SDS011;4786;51.270;4.456;2022-08-02T14:25:56;6.97;;;1.90;;
9496;SDS011;4786;51.270;4.456;2022-08-02T14:28:23;4.65;;;1.50;;
9496;SDS011;4786;51.270;4.456;2022-08-02T14:30:49;3.42;;;1.90;;
9496;SDS011;4786;51.270;4.456;2022-08-02T14:33:16;3.92;;;1.80;;
9496;SDS011;4786;51.270;4.456;2022-08-02T14:35:43;4.15;;;1.60;;
9496;SDS011;4786;51.270;4.456;2022-08-02T14:38:08;4.72;;;1.80;;
9496;SDS011;4786;51.270;4.456;2022-08-02T14:40:34;4.32;;;1.70;;
9496;SDS011;4786;51.270;4.456;2022-08-02T14:43:00;3.72;;;2.05;;
9496;SDS011;4786;51.270;4.456;2022-08-02T14:45:26;6.57;;;1.92;;
9496;SDS011;4786;51.270;4.456;2022-08-02T14:47:53;3.28;;;1.67;;
9496;SDS011;4786;51.270;4.456;2022-08-02T14:50:20;2.30;;;1.52;;
9496;SDS011;4786;51.270;4.456;2022-08-02T14:52:46;3.50;;;1.80;;
9496;SDS011;4786;51.270;4.456;2022-08-02T14:55:13;2.72;;;1.60;;
9496;SDS011;4786;51.270;4.456;2022-08-02T14:57:39;4.47;;;1.60;;
9496;SDS011;4786;51.270;4.456;2022-08-02T15:00:06;4.15;;;1.60;;
9496;SDS011;4786;51.270;4.456;2022-08-02T15:02:33;5.95;;;2.00;;
9496;SDS011;4786;51.270;4.456;2022-08-02T15:04:59;3.83;;;1.80;;
9496;SDS011;4786;51.270;4.456;2022-08-02T15:07:26;3.35;;;1.75;;
9496;SDS011;4786;51.270;4.456;2022-08-02T15:09:52;2.58;;;1.63;;
9496;SDS011;4786;51.270;4.456;2022-08-02T15:12:18;4.00;;;1.73;;
9496;SDS011;4786;51.270;4.456;2022-08-02T15:14:43;8.55;;;1.85;;
9496;SDS011;4786;51.270;4.456;2022-08-02T15:17:09;3.88;;;1.73;;
9496;SDS011;4786;51.270;4.456;2022-08-02T15:19:36;3.38;;;1.60;;
9496;SDS011;4786;51.270;4.456;2022-08-02T15:22:02;6.68;;;2.08;;
9496;SDS011;4786;51.270;4.456;2022-08-02T15:24:28;4.80;;;1.90;;
9496;SDS011;4786;51.270;4.456;2022-08-02T15:26:54;4.22;;;1.90;;
9496;SDS011;4786;51.270;4.456;2022-08-02T15:29:21;4.45;;;1.73;;
9496;SDS011;4786;51.270;4.456;2022-08-02T15:31:46;4.95;;;1.73;;
9496;SDS011;4786;51.270;4.456;2022-08-02T15:34:12;3.47;;;1.58;;
9496;SDS011;4786;51.270;4.456;2022-08-02T15:36:39;2.58;;;1.80;;
9496;SDS011;4786;51.270;4.456;2022-08-02T15:39:05;5.40;;;1.58;;
9496;SDS011;4786;51.270;4.456;2022-08-02T15:41:31;3.22;;;1.63;;
9496;SDS011;4786;51.270;4.456;2022-08-02T15:43:57;5.95;;;1.90;;
9496;SDS011;4786;51.270;4.456;2022-08-02T15:46:22;2.95;;;1.52;;
9496;SDS011;4786;51.270;4.456;2022-08-02T15:48:48;4.30;;;1.95;;
9496;SDS011;4786;51.270;4.456;2022-08-02T15:51:14;3.38;;;1.50;;
9496;SDS011;4786;51.270;4.456;2022-08-02T15:53:40;3.08;;;1.50;;
9496;SDS011;4786;51.270;4.456;2022-08-02T15:56:06;3.42;;;1.70;;
9496;SDS011;4786;51.270;4.456;2022-08-02T15:58:31;4.10;;;1.73;;
9496;SDS011;4786;51.270;4.456;2022-08-02T16:00:57;4.35;;;1.50;;
9496;SDS011;4786;51.270;4.456;2022-08-02T16:03:23;5.07;;;1.65;;